Aviation Digital Data Service (ADDS)

Output produced by METARs form (0732 UTC 24 March 2019)
found at http://www.aviationweather.gov/metar/data/
 
KEET 240653Z AUTO 00000KT 10SM CLR 09/03 A3021 RMK AO2 SLP228 T00940028
KEET 240524Z 2406/2506 00000KT P6SM SCT250 
     FM241700 18006KT P6SM BKN250 
     FM250000 18002KT P6SM SCT100 BKN250
       
K8A0 240715Z AUTO 12003KT 10SM CLR 11/M05 A3022 RMK AO2
KALX 240715Z AUTO 00000KT 10SM CLR 07/05 A3022 RMK AO2 T00740046
K79J 240656Z AUTO 00000KT 10SM CLR 09/06 A3022 RMK AO2 SLP229 T00890056
KANB 240653Z AUTO 05004KT 9SM CLR 08/02 A3023 RMK AO2 SLP239 T00830022
KANB 240524Z 2406/2506 08003KT P6SM SCT250 
     FM241700 20007KT P6SM BKN250 
     FM250000 18002KT P6SM SCT100 BKN250
       
KAUO 240656Z AUTO 12004KT 10SM CLR 13/M01 A3023 RMK AO2 SLP255 T01331011
KEKY 240656Z AUTO 09006KT 10SM CLR 10/M02 A3021 RMK AO2 SLP246 T01001017
KBHM 240653Z 00000KT 10SM SCT250 12/M01 A3022 RMK AO2 SLP231 T01171011
KBHM 240524Z 2406/2506 08003KT P6SM SCT250 
     FM241700 19008KT P6SM BKN250 
     FM250100 20004KT P6SM BKN110
       
KDCU 240653Z AUTO 00000KT 10SM CLR 04/01 A3023 RMK AO2 SLP235 T00440011
KDYA 240715Z AUTO 00000KT 10SM CLR 07/05 A3020 RMK AO2 T00740050
KDHN 240653Z AUTO 00000KT 10SM CLR 09/04 A3025 RMK AO2 SLP241 T00940044
KDHN 240520Z 2406/2506 00000KT P6SM SKC 
     FM241500 17007KT P6SM SCT250 
     FM250000 21004KT P6SM SCT250
       
KEDN 240715Z AUTO 00000KT 10SM CLR 07/07 A3021 RMK AO2 T00720065
KGZH 240653Z AUTO 00000KT 10SM CLR 08/05 A3021 RMK AO2 SLP227 T00780050
KCQF 240715Z AUTO 00000KT 5SM BR CLR 06/06 A3019 RMK AO2
K0J4 240658Z AUTO 00000KT 10SM CLR 08/04 A3023 RMK AO2 SLP235 T00780044
K4A9 240715Z AUTO 03003KT 10SM CLR 04/01 A3022 RMK AO2 T00440007
KGAD 240656Z AUTO 00000KT 10SM CLR 05/05 A3024 RMK AO2 SLP244 T00500050
KJKA 240715Z AUTO 00000KT 3/4SM BR VV005 07/07 A3020 RMK AO2 T00650065
K1M4 240656Z AUTO 10003KT 10SM CLR 04/02 A3023 RMK AO2 SLP261 T00440017
KHSV 240653Z AUTO 06003KT 10SM CLR 09/01 A3022 RMK AO2 SLP229 T00940011 $
KHSV 240520Z 2406/2506 15003KT P6SM BKN150 OVC250 
     FM241300 20010KT P6SM BKN150 OVC250 
     FM242100 20010KT P6SM VCSH BKN100 OVC250 
     FM250100 20007KT P6SM BKN050 OVC250
       
KMDQ 240715Z AUTO 00000KT 10SM CLR 05/03 A3023 RMK A02 T00460025
KJFX 240715Z AUTO 04/04 A3022 RMK AO2 PWINO
KA08 240715Z AUTO 00000KT 10SM CLR 06/03 A3020 RMK AO2 T00630025
KBFM 240653Z AUTO 00000KT 5SM BR CLR 09/08 A3021 RMK AO2 SLP230 T00890083
KBFM 240520Z 2406/2506 00000KT P6SM FEW250 
     FM241600 13005KT P6SM SCT250
       
KMOB 240656Z AUTO 00000KT 10SM CLR 10/08 A3020 RMK AO2 SLP226 T01000083
KMOB 240520Z 2406/2506 00000KT P6SM FEW250 
     FM241500 13005KT P6SM SCT250
       
KMGM 240653Z AUTO 00000KT 10SM CLR 08/06 A3022 RMK AO2 SLP231 T00830056
KMGM 240524Z 2406/2506 00000KT P6SM SCT250 
     FM241700 18008KT P6SM SCT250 
     FM250000 20004KT P6SM SCT250
       
KMSL 240653Z AUTO 00000KT 10SM CLR 07/02 A3022 RMK AO2 SLP232 T00670022
KMSL 240520Z 2406/2506 15003KT P6SM BKN150 OVC250 
     FM241300 20010KT P6SM BKN150 OVC250 
     FM241900 20010KT P6SM VCSH BKN100 OVC250 
     FM242300 20007KT P6SM BKN050 OVC250
       
KPLR 240715Z AUTO 00000KT 10SM CLR 04/04 A3022 RMK A01
K1A9 240715Z AUTO 00000KT 10SM CLR 07/04 A3021 RMK AO2 T00660044
K4A6 240715Z AUTO 00000KT 10SM CLR 06/04 A3024 RMK AO2
KSEM 240715Z AUTO 00000KT 10SM 07/04 A3020 RMK AO2
KSCD 240715Z AUTO 00000KT 10SM BKN095 OVC120 07/03 A3022 RMK AO2 T00730034
KASN 240715Z AUTO 00000KT 10SM CLR 07/04 A3023 RMK AO2 T00710041
KASN 240524Z 2406/2506 VRB03KT P6SM SCT250 
     FM241700 19007KT P6SM BKN250 
     FM250000 18002KT P6SM SCT100 BKN250
       
KTOI 240653Z AUTO 00000KT 10SM CLR 07/05 A3022 RMK AO2 SLP232 T00670050
KTOI 240524Z 2406/2506 12003KT P6SM SCT250 
     FM241700 18008KT P6SM SCT250 
     FM250000 20003KT P6SM SCT250
       
KTCL 240653Z AUTO 24003KT 9SM CLR 08/04 A3020 RMK AO2 SLP225 T00830039
KTCL 240524Z 2406/2506 00000KT P6SM SCT250 
     FM241700 19007KT P6SM BKN250 
     FM250000 19003KT P6SM BKN090